createdAt,value
2023-01-07T00:01:40.893Z,101550.06
2023-01-07T00:04:12.165Z,101543.94
2023-01-07T00:06:41.813Z,101543.00
2023-01-07T00:09:13.817Z,101549.91
2023-01-07T00:11:41.748Z,101551.56
2023-01-07T00:14:11.013Z,101554.13
2023-01-07T00:16:39.054Z,101548.94
2023-01-07T00:19:08.220Z,101549.75
2023-01-07T00:21:35.141Z,101554.06
2023-01-07T00:24:04.890Z,101548.88
2023-01-07T00:26:36.014Z,101548.88
2023-01-07T00:29:04.403Z,101541.97
2023-01-07T00:31:35.449Z,101547.13
2023-01-07T00:34:02.609Z,101548.81
2023-01-07T00:36:32.744Z,101545.34
2023-01-07T00:39:34.000Z,101548.81
2023-01-07T00:42:20.738Z,101549.66
2023-01-07T00:44:47.627Z,101549.59
2023-01-07T00:47:14.527Z,101554.75
2023-01-07T00:49:41.405Z,101552.19
2023-01-07T00:52:08.307Z,101559.09
2023-01-07T00:54:35.183Z,101564.22
2023-01-07T00:57:02.267Z,101552.13
2023-01-07T00:59:29.138Z,101553.78
2023-01-07T01:01:56.228Z,101547.78
2023-01-07T01:04:24.825Z,101550.38
2023-01-07T01:06:51.710Z,101556.34
2023-01-07T01:09:20.680Z,101555.53
2023-01-07T01:11:47.620Z,101556.34
2023-01-07T01:14:14.489Z,101558.94
2023-01-07T01:16:42.257Z,101558.06
2023-01-07T01:19:09.220Z,101564.97
2023-01-07T01:21:36.139Z,101566.72
2023-01-07T01:24:03.008Z,101560.66
2023-01-07T01:26:29.926Z,101559.78
2023-01-07T01:28:57.419Z,101559.81
2023-01-07T01:31:24.645Z,101558.06
2023-01-07T01:33:57.344Z,101570.19
2023-01-07T01:36:24.800Z,101571.09
2023-01-07T01:38:54.006Z,101568.53
2023-01-07T01:41:21.545Z,101566.88
2023-01-07T01:43:51.699Z,101555.63
2023-01-07T01:46:41.804Z,101565.16
2023-01-07T01:49:26.394Z,101563.47
2023-01-07T01:52:09.319Z,101563.47
2023-01-07T01:54:36.221Z,101566.09
2023-01-07T01:57:07.151Z,101567.91
2023-01-07T01:59:38.400Z,101553.22
2023-01-07T02:02:09.723Z,101553.34
2023-01-07T02:04:37.389Z,101539.38
2023-01-07T02:07:09.918Z,101549.91
2023-01-07T02:09:40.739Z,101545.69
2023-01-07T02:12:53.809Z,101541.41
2023-01-07T02:15:54.318Z,101536.22
2023-01-07T02:18:47.669Z,101533.66
2023-01-07T02:21:37.696Z,101532.84
2023-01-07T02:24:46.736Z,101531.94
2023-01-07T02:27:42.291Z,101533.72
2023-01-07T02:30:34.507Z,101536.31
2023-01-07T02:33:20.111Z,101532.88
2023-01-07T02:36:22.152Z,101544.06
2023-01-07T02:39:25.779Z,101533.72
2023-01-07T02:42:00.216Z,101533.75
2023-01-07T02:45:18.003Z,101530.28
2023-01-07T02:48:00.458Z,101530.25
2023-01-07T02:50:27.711Z,101511.03
2023-01-07T02:52:54.645Z,101520.78
2023-01-07T02:55:34.053Z,101519.09
2023-01-07T02:58:17.871Z,101509.53
2023-01-07T03:01:36.210Z,101513.78
2023-01-07T03:04:21.641Z,101520.78
2023-01-07T03:07:21.269Z,101520.78
2023-01-07T03:10:24.559Z,101523.38
2023-01-07T03:13:05.043Z,101519.03
2023-01-07T03:15:43.323Z,101519.75
2023-01-07T03:18:22.402Z,101514.56
2023-01-07T03:20:54.478Z,101507.59
2023-01-07T03:23:25.632Z,101502.25
2023-01-07T03:25:54.714Z,101511.88
2023-01-07T03:28:27.242Z,101512.69
2023-01-07T03:30:56.986Z,101503.91
2023-01-07T03:33:39.896Z,101514.31
2023-01-07T03:36:12.233Z,101513.47
2023-01-07T03:38:40.497Z,101514.31
2023-01-07T03:41:07.772Z,101516.84
2023-01-07T03:43:34.813Z,101520.28
2023-01-07T03:46:02.033Z,101516.84
2023-01-07T03:48:29.060Z,101524.63
2023-01-07T03:50:56.375Z,101529.00
2023-01-07T03:53:23.246Z,101520.38
2023-01-07T03:55:52.812Z,101512.66
2023-01-07T03:58:19.709Z,101508.34
2023-01-07T04:00:46.677Z,101511.81
2023-01-07T04:03:18.450Z,101510.06
2023-01-07T04:05:47.350Z,101503.13
2023-01-07T04:08:14.347Z,101495.31
2023-01-07T04:10:42.540Z,101499.56
2023-01-07T04:13:09.915Z,101498.56
2023-01-07T04:15:37.517Z,101507.97
2023-01-07T04:18:04.515Z,101501.81
2023-01-07T04:20:31.522Z,101484.47
2023-01-07T04:22:59.507Z,101484.38
2023-01-07T04:25:26.459Z,101474.00
2023-01-07T04:27:54.298Z,101476.47
2023-01-07T04:30:22.113Z,101478.09
2023-01-07T04:32:48.997Z,101465.94
2023-01-07T04:35:15.879Z,101472.75
2023-01-07T04:37:43.581Z,101474.41
2023-01-07T04:40:11.127Z,101469.16
2023-01-07T04:42:38.671Z,101469.09
2023-01-07T04:45:08.666Z,101456.75
2023-01-07T04:47:35.628Z,101453.47
2023-01-07T04:50:04.363Z,101457.84
2023-01-07T04:52:33.896Z,101448.28
2023-01-07T04:55:01.570Z,101448.25
2023-01-07T04:57:28.635Z,101445.59
2023-01-07T04:59:55.551Z,101430.06
2023-01-07T05:02:22.958Z,101433.50
2023-01-07T05:04:50.135Z,101427.44
2023-01-07T05:07:18.639Z,101423.94
2023-01-07T05:09:46.117Z,101421.28
2023-01-07T05:12:13.215Z,101416.06
2023-01-07T05:14:42.959Z,101422.00
2023-01-07T05:17:09.999Z,101427.09
2023-01-07T05:19:38.425Z,101426.13
2023-01-07T05:22:05.374Z,101423.50
2023-01-07T05:24:36.049Z,101424.28
2023-01-07T05:27:02.972Z,101430.16
2023-01-07T05:29:30.014Z,101430.94
2023-01-07T05:31:56.927Z,101430.88
2023-01-07T05:34:23.813Z,101426.31
2023-01-07T05:36:50.742Z,101437.53
2023-01-07T05:39:17.859Z,101432.28
2023-01-07T05:41:45.331Z,101443.47
2023-01-07T05:44:12.238Z,101443.31
2023-01-07T05:46:39.121Z,101449.25
2023-01-07T05:49:06.327Z,101456.31
2023-01-07T05:51:33.314Z,101458.91
2023-01-07T05:54:00.218Z,101452.00
2023-01-07T05:56:27.111Z,101449.50
2023-01-07T05:58:53.989Z,101449.66
2023-01-07T06:01:20.969Z,101444.66
2023-01-07T06:03:47.977Z,101441.31
2023-01-07T06:06:14.942Z,101431.97
2023-01-07T06:08:41.957Z,101446.84
2023-01-07T06:11:09.139Z,101439.25
2023-01-07T06:13:36.372Z,101432.50
2023-01-07T06:16:06.921Z,101439.56
2023-01-07T06:18:35.170Z,101433.50
2023-01-07T06:21:02.936Z,101445.06
2023-01-07T06:23:31.327Z,101440.91
2023-01-07T06:25:58.250Z,101451.47
2023-01-07T06:28:25.181Z,101441.19
2023-01-07T06:30:52.094Z,101433.56
2023-01-07T06:33:19.071Z,101441.50
2023-01-07T06:35:46.695Z,101431.22
2023-01-07T06:38:13.578Z,101436.50
2023-01-07T06:40:40.517Z,101439.09
2023-01-07T06:43:07.413Z,101446.19
2023-01-07T06:45:34.302Z,101443.75
2023-01-07T06:48:01.180Z,101437.84
2023-01-07T06:50:28.104Z,101436.25
2023-01-07T06:52:56.805Z,101433.72
2023-01-07T06:55:23.772Z,101429.53
2023-01-07T06:57:50.677Z,101437.47
2023-01-07T07:00:17.713Z,101433.19
2023-01-07T07:02:44.655Z,101433.34
2023-01-07T07:05:12.222Z,101429.03
2023-01-07T07:07:39.118Z,101426.69
2023-01-07T07:10:07.699Z,101410.06
2023-01-07T07:12:36.549Z,101431.25
2023-01-07T07:15:04.701Z,101430.41
2023-01-07T07:17:31.705Z,101438.44
2023-01-07T07:19:58.600Z,101437.69
2023-01-07T07:22:25.524Z,101436.91
2023-01-07T07:24:52.491Z,101443.09
2023-01-07T07:27:19.372Z,101436.25
2023-01-07T07:29:46.291Z,101439.84
2023-01-07T07:32:13.175Z,101433.81
2023-01-07T07:34:40.074Z,101435.69
2023-01-07T07:37:06.969Z,101441.81
2023-01-07T07:39:33.904Z,101434.94
2023-01-07T07:42:05.409Z,101437.59
2023-01-07T07:44:32.390Z,101429.97
2023-01-07T07:46:59.340Z,101430.94
2023-01-07T07:49:26.313Z,101437.06
2023-01-07T07:51:53.223Z,101435.44
2023-01-07T07:54:21.836Z,101432.06
2023-01-07T07:56:50.617Z,101438.16
2023-01-07T07:59:17.515Z,101439.09
2023-01-07T08:01:44.490Z,101423.47
2023-01-07T08:04:11.586Z,101429.69
2023-01-07T08:06:38.475Z,101438.34
2023-01-07T08:09:05.359Z,101436.69
2023-01-07T08:11:32.266Z,101435.00
2023-01-07T08:13:59.193Z,101436.00
2023-01-07T08:16:26.455Z,101439.63
2023-01-07T08:18:53.359Z,101431.97
2023-01-07T08:21:20.290Z,101436.38
2023-01-07T08:23:47.181Z,101436.50
2023-01-07T08:26:14.126Z,101427.97
2023-01-07T08:28:41.029Z,101425.47
2023-01-07T08:31:08.801Z,101428.16
2023-01-07T08:33:38.620Z,101430.00
2023-01-07T08:36:18.083Z,101420.53
2023-01-07T08:38:52.446Z,101409.31
2023-01-07T08:41:21.618Z,101414.75
2023-01-07T08:43:48.541Z,101416.56
2023-01-07T08:46:15.448Z,101414.09
2023-01-07T08:48:42.422Z,101398.50
2023-01-07T08:51:09.315Z,101395.91
2023-01-07T08:53:36.250Z,101402.13
2023-01-07T08:56:03.373Z,101402.22
2023-01-07T08:58:30.297Z,101399.72
2023-01-07T09:01:02.989Z,101389.38
2023-01-07T09:03:30.061Z,101398.13
2023-01-07T09:05:56.966Z,101386.00
2023-01-07T09:08:23.908Z,101397.44
2023-01-07T09:10:50.911Z,101386.19
2023-01-07T09:13:17.958Z,101394.16
2023-01-07T09:15:45.636Z,101383.75
2023-01-07T09:18:12.531Z,101393.44
2023-01-07T09:20:39.405Z,101389.19
2023-01-07T09:23:06.383Z,101386.66
2023-01-07T09:25:33.277Z,101386.75
2023-01-07T09:28:00.176Z,101392.00
2023-01-07T09:30:27.151Z,101390.31
2023-01-07T09:32:54.075Z,101399.84
2023-01-07T09:35:21.871Z,101398.25
2023-01-07T09:37:48.783Z,101383.56
2023-01-07T09:40:25.961Z,101377.50
2023-01-07T09:43:19.755Z,101369.72
2023-01-07T09:45:57.434Z,101370.63
2023-01-07T09:48:44.156Z,101373.28
2023-01-07T09:51:33.461Z,101374.22
2023-01-07T09:54:04.143Z,101367.31
2023-01-07T09:56:34.449Z,101369.97
2023-01-07T09:59:02.480Z,101375.25
2023-01-07T10:01:50.309Z,101370.97
2023-01-07T10:04:49.749Z,101362.31
2023-01-07T10:07:39.602Z,101348.41
2023-01-07T10:10:23.627Z,101348.44
2023-01-07T10:13:10.812Z,101352.84
2023-01-07T10:16:05.501Z,101352.91
2023-01-07T10:19:00.272Z,101356.41
2023-01-07T10:21:47.573Z,101359.06
2023-01-07T10:24:32.680Z,101361.75
2023-01-07T10:27:07.586Z,101354.94
2023-01-07T10:29:46.819Z,101362.00
2023-01-07T10:32:22.460Z,101355.09
2023-01-07T10:34:54.032Z,101346.47
2023-01-07T10:37:30.672Z,101353.50
2023-01-07T10:40:12.504Z,101351.81
2023-01-07T10:43:08.803Z,101347.56
2023-01-07T10:45:52.710Z,101337.13
2023-01-07T10:48:41.343Z,101345.09
2023-01-07T10:51:42.112Z,101346.09
2023-01-07T10:54:40.456Z,101338.31
2023-01-07T10:57:15.491Z,101338.41
2023-01-07T10:59:50.257Z,101340.25
2023-01-07T11:02:21.613Z,101328.13
2023-01-07T11:04:48.843Z,101336.94
2023-01-07T11:07:40.346Z,101333.50
2023-01-07T11:10:14.444Z,101327.44
2023-01-07T11:12:46.471Z,101327.50
2023-01-07T11:15:26.236Z,101324.03
2023-01-07T11:18:01.748Z,101318.84
2023-01-07T11:20:49.390Z,101325.84
2023-01-07T11:23:32.199Z,101319.72
2023-01-07T11:26:25.421Z,101324.97
2023-01-07T11:28:59.812Z,101315.41
2023-01-07T11:31:57.876Z,101316.22
2023-01-07T11:34:34.613Z,101307.50
2023-01-07T11:37:02.632Z,101306.66
2023-01-07T11:39:34.175Z,101294.44
2023-01-07T11:42:28.929Z,101291.84
2023-01-07T11:45:22.313Z,101292.72
2023-01-07T11:47:58.839Z,101292.81
2023-01-07T11:50:45.437Z,101281.47
2023-01-07T11:53:15.210Z,101276.28
2023-01-07T11:56:11.666Z,101280.63
2023-01-07T11:58:46.804Z,101277.19
2023-01-07T12:01:21.119Z,101278.06
2023-01-07T12:03:56.936Z,101275.50
2023-01-07T12:06:33.233Z,101268.53
2023-01-07T12:09:25.959Z,101268.56
2023-01-07T12:11:56.181Z,101260.78
2023-01-07T12:14:27.225Z,101259.94
2023-01-07T12:16:56.424Z,101254.72
2023-01-07T12:20:14.391Z,101259.97
2023-01-07T12:23:13.373Z,101249.53
2023-01-07T12:26:16.429Z,101257.38
2023-01-07T12:29:13.497Z,101247.81
2023-01-07T12:32:05.026Z,101248.72
2023-01-07T12:34:49.041Z,101249.56
2023-01-07T12:37:45.011Z,101246.94
2023-01-07T12:40:20.650Z,101239.13
2023-01-07T12:43:03.093Z,101241.72
2023-01-07T12:45:48.390Z,101225.16
2023-01-07T12:48:42.784Z,101239.16
2023-01-07T12:51:33.514Z,101235.66
2023-01-07T12:54:09.630Z,101231.34
2023-01-07T12:56:49.849Z,101230.47
2023-01-07T12:59:45.909Z,101223.50
2023-01-07T13:02:48.201Z,101224.38
2023-01-07T13:05:22.459Z,101220.88
2023-01-07T13:08:17.697Z,101229.59
2023-01-07T13:11:20.210Z,101215.66
2023-01-07T13:13:54.248Z,101220.91
2023-01-07T13:16:21.342Z,101213.06
2023-01-07T13:18:48.247Z,101214.81
2023-01-07T13:21:17.066Z,101214.84
2023-01-07T13:24:01.735Z,101215.69
2023-01-07T13:26:36.000Z,101203.47
2023-01-07T13:29:21.045Z,101200.88
2023-01-07T13:32:18.569Z,101192.19
2023-01-07T13:35:15.553Z,101188.66
2023-01-07T13:38:06.690Z,101185.16
2023-01-07T13:41:20.104Z,101178.19
2023-01-07T13:44:09.113Z,101181.69
2023-01-07T13:46:41.440Z,101179.06
2023-01-07T13:49:29.100Z,101175.53
2023-01-07T13:52:12.613Z,101173.81
2023-01-07T13:54:48.642Z,101171.19
2023-01-07T13:57:27.366Z,101169.44
2023-01-07T13:59:56.236Z,101163.38
2023-01-07T14:02:28.880Z,101160.75
2023-01-07T14:05:10.688Z,101165.09
2023-01-07T14:07:52.724Z,101164.22
2023-01-07T14:10:37.369Z,101152.88
2023-01-07T14:13:33.814Z,101156.38
2023-01-07T14:16:28.587Z,101168.53
2023-01-07T14:19:17.228Z,101166.78
2023-01-07T14:22:07.475Z,101169.38
2023-01-07T14:25:09.083Z,101167.66
2023-01-07T14:27:50.386Z,101161.53
2023-01-07T14:30:26.325Z,101169.38
2023-01-07T14:33:03.208Z,101166.75
2023-01-07T14:35:42.951Z,101162.38
2023-01-07T14:38:40.089Z,101161.47
2023-01-07T14:41:09.792Z,101154.50
2023-01-07T14:43:45.664Z,101152.75
2023-01-07T14:46:48.344Z,101151.88
2023-01-07T14:50:05.652Z,101151.84
2023-01-07T14:53:16.103Z,101152.69
2023-01-07T14:56:21.718Z,101142.16
2023-01-07T14:59:40.333Z,101138.66
2023-01-07T15:02:44.675Z,101136.03
2023-01-07T15:05:54.695Z,101134.25
2023-01-07T15:08:44.184Z,101138.56
2023-01-07T15:11:43.655Z,101139.41
2023-01-07T15:15:08.289Z,101133.28
2023-01-07T15:17:39.946Z,101147.13
2023-01-07T15:20:07.808Z,101155.81
2023-01-07T15:23:31.921Z,101148.84
2023-01-07T15:26:11.977Z,101147.06
2023-01-07T15:29:06.460Z,101147.03
2023-01-07T15:32:26.819Z,101147.88
2023-01-07T15:34:54.126Z,101140.91
2023-01-07T15:37:21.237Z,101138.31
2023-01-07T15:39:54.446Z,101145.28
2023-01-07T15:42:24.289Z,101128.69
2023-01-07T15:44:54.575Z,101140.91
2023-01-07T15:47:41.866Z,101134.78
2023-01-07T15:50:30.007Z,101143.44
2023-01-07T15:53:00.367Z,101141.72
2023-01-07T15:55:55.446Z,101138.22
2023-01-07T15:58:30.725Z,101139.94
2023-01-07T16:00:59.624Z,101136.44
2023-01-07T16:03:27.803Z,101132.09
2023-01-07T16:05:56.125Z,101126.00
2023-01-07T16:08:30.325Z,101135.56
2023-01-07T16:11:25.623Z,101128.63
2023-01-07T16:13:57.721Z,101127.69
2023-01-07T16:16:25.146Z,101125.91
2023-01-07T16:18:57.475Z,101125.03
2023-01-07T16:21:28.144Z,101108.44
2023-01-07T16:23:55.282Z,101113.69
2023-01-07T16:26:47.713Z,101125.84
2023-01-07T16:29:20.452Z,101130.19
2023-01-07T16:31:47.611Z,101123.22
2023-01-07T16:34:23.663Z,101127.56
2023-01-07T16:36:55.972Z,101121.50
2023-01-07T16:39:47.268Z,101120.59
2023-01-07T16:42:22.987Z,101111.03
2023-01-07T16:44:52.838Z,101102.31
2023-01-07T16:47:30.001Z,101102.34
2023-01-07T16:50:13.618Z,101104.94
2023-01-07T16:52:53.785Z,101099.72
2023-01-07T16:55:49.902Z,101091.91
2023-01-07T16:58:41.919Z,101090.19
2023-01-07T17:01:10.194Z,101098.91
2023-01-07T17:03:54.290Z,101086.75
2023-01-07T17:06:36.682Z,101086.75
2023-01-07T17:09:03.978Z,101088.47
2023-01-07T17:11:34.295Z,101087.63
2023-01-07T17:14:01.296Z,101081.53
2023-01-07T17:16:33.772Z,101068.53
2023-01-07T17:19:27.490Z,101074.63
2023-01-07T17:21:55.111Z,101061.56
2023-01-07T17:24:29.199Z,101062.47
2023-01-07T17:27:02.591Z,101054.66
2023-01-07T17:29:36.953Z,101047.69
2023-01-07T17:32:04.553Z,101057.25
2023-01-07T17:34:31.440Z,101060.78
2023-01-07T17:36:58.315Z,101055.56
2023-01-07T17:39:25.226Z,101057.31
2023-01-07T17:42:10.403Z,101048.66
2023-01-07T17:44:37.294Z,101051.25
2023-01-07T17:47:04.209Z,101050.41
2023-01-07T17:49:31.065Z,101048.69
2023-01-07T17:51:57.978Z,101047.81
2023-01-07T17:54:25.539Z,101045.22
2023-01-07T17:56:52.724Z,101043.47
2023-01-07T17:59:23.712Z,101049.59
2023-01-07T18:01:53.012Z,101041.75
2023-01-07T18:04:21.403Z,101039.16
2023-01-07T18:06:48.337Z,101040.03
2023-01-07T18:09:15.195Z,101037.41
2023-01-07T18:12:04.061Z,101040.03
2023-01-07T18:14:32.493Z,101041.81
2023-01-07T18:16:59.448Z,101034.84
2023-01-07T18:19:26.329Z,101030.50
2023-01-07T18:21:53.227Z,101031.41
2023-01-07T18:24:21.548Z,101014.00
2023-01-07T18:26:48.719Z,101026.19
2023-01-07T18:29:15.610Z,101019.25
2023-01-07T18:31:44.974Z,101015.78
2023-01-07T18:34:14.111Z,101020.09
2023-01-07T18:36:41.369Z,101014.88
2023-01-07T18:39:11.046Z,101023.59
2023-01-07T18:41:39.804Z,101015.72
2023-01-07T18:44:06.740Z,101007.94
2023-01-07T18:46:34.029Z,101007.03
2023-01-07T18:49:00.980Z,101005.28
2023-01-07T18:51:27.865Z,101004.44
2023-01-07T18:53:54.783Z,100994.84
2023-01-07T18:56:21.675Z,100986.16
2023-01-07T18:58:53.679Z,100971.38
2023-01-07T19:01:21.386Z,100974.84
2023-01-07T19:03:48.815Z,100973.13
2023-01-07T19:06:15.761Z,100972.22
2023-01-07T19:08:42.661Z,100962.69
2023-01-07T19:11:14.477Z,100959.16
2023-01-07T19:13:41.790Z,100951.31
2023-01-07T19:16:11.849Z,100954.78
2023-01-07T19:18:39.568Z,100948.66
2023-01-07T19:21:11.914Z,100949.50
2023-01-07T19:23:38.916Z,100946.84
2023-01-07T19:26:08.820Z,100952.91
2023-01-07T19:28:35.816Z,100941.59
2023-01-07T19:31:07.658Z,100945.91
2023-01-07T19:33:35.114Z,100945.88
2023-01-07T19:36:11.457Z,100938.91
2023-01-07T19:38:40.425Z,100944.06
2023-01-07T19:41:13.702Z,100937.97
2023-01-07T19:43:40.713Z,100931.88
2023-01-07T19:46:10.223Z,100935.38
2023-01-07T19:48:37.237Z,100923.19
2023-01-07T19:51:05.554Z,100924.91
2023-01-07T19:53:33.864Z,100925.78
2023-01-07T19:56:02.612Z,100921.47
2023-01-07T19:58:29.819Z,100923.22
2023-01-07T20:01:06.752Z,100920.63
2023-01-07T20:03:35.883Z,100918.88
2023-01-07T20:06:11.621Z,100920.63
2023-01-07T20:08:39.313Z,100913.66
2023-01-07T20:11:07.496Z,100905.84
2023-01-07T20:13:36.923Z,100902.38
2023-01-07T20:16:18.792Z,100895.41
2023-01-07T20:18:49.350Z,100901.50
2023-01-07T20:21:19.342Z,100897.13
2023-01-07T20:23:46.507Z,100893.69
2023-01-07T20:26:22.990Z,100890.19
2023-01-07T20:28:50.016Z,100888.44
2023-01-07T20:31:19.484Z,100886.75
2023-01-07T20:33:46.670Z,100871.09
2023-01-07T20:36:20.396Z,100878.06
2023-01-07T20:38:47.921Z,100878.03
2023-01-07T20:41:35.414Z,100878.88
2023-01-07T20:44:04.193Z,100875.41
2023-01-07T20:46:33.459Z,100877.16
2023-01-07T20:49:00.845Z,100867.59
2023-01-07T20:51:27.940Z,100877.16
2023-01-07T20:53:54.863Z,100878.03
2023-01-07T20:56:23.697Z,100874.56
2023-01-07T20:58:51.028Z,100867.63
2023-01-07T21:01:20.360Z,100867.63
2023-01-07T21:03:47.484Z,100857.22
2023-01-07T21:06:17.823Z,100852.00
2023-01-07T21:08:47.068Z,100861.56
2023-01-07T21:11:18.686Z,100844.19
2023-01-07T21:13:46.668Z,100842.44
2023-01-07T21:16:14.614Z,100834.63
2023-01-07T21:18:41.942Z,100844.19
2023-01-07T21:21:20.942Z,100833.78
2023-01-07T21:23:48.718Z,100834.63
2023-01-07T21:26:16.559Z,100831.16
2023-01-07T21:28:44.579Z,100825.06
2023-01-07T21:31:17.089Z,100824.22
2023-01-07T21:33:44.483Z,100820.75
2023-01-07T21:36:18.308Z,100816.47
2023-01-07T21:38:46.774Z,100806.91
2023-01-07T21:41:16.511Z,100806.84
2023-01-07T21:43:44.390Z,100806.03
2023-01-07T21:46:12.471Z,100805.19
2023-01-07T21:48:42.183Z,100795.63
2023-01-07T21:51:23.944Z,100799.97
2023-01-07T21:53:52.294Z,100798.22
2023-01-07T21:56:19.933Z,100797.34
2023-01-07T21:58:47.810Z,100799.09
2023-01-07T22:01:16.977Z,100784.31
2023-01-07T22:03:47.230Z,100781.72
2023-01-07T22:06:30.319Z,100783.41
2023-01-07T22:09:06.640Z,100776.47
2023-01-07T22:11:35.605Z,100775.59
2023-01-07T22:14:02.525Z,100781.66
2023-01-07T22:16:30.967Z,100770.34
2023-01-07T22:18:58.452Z,100771.19
2023-01-07T22:21:25.379Z,100765.13
2023-01-07T22:23:52.283Z,100761.66
2023-01-07T22:26:20.407Z,100753.84
2023-01-07T22:28:55.020Z,100744.28
2023-01-07T22:31:29.074Z,100734.75
2023-01-07T22:33:56.957Z,100742.56
2023-01-07T22:36:41.438Z,100741.72
2023-01-07T22:39:25.654Z,100727.81
2023-01-07T22:41:56.595Z,100720.88
2023-01-07T22:44:30.938Z,100719.13
2023-01-07T22:46:57.951Z,100724.31
2023-01-07T22:49:29.083Z,100725.22
2023-01-07T22:51:56.391Z,100718.25
2023-01-07T22:54:24.568Z,100715.66
2023-01-07T22:56:51.655Z,100714.78
2023-01-07T22:59:18.554Z,100710.44
2023-01-07T23:01:45.514Z,100703.50
2023-01-07T23:04:12.553Z,100690.47
2023-01-07T23:06:39.561Z,100693.94
2023-01-07T23:09:06.498Z,100698.28
2023-01-07T23:11:48.503Z,100693.97
2023-01-07T23:14:24.527Z,100690.47
2023-01-07T23:16:52.523Z,100694.81
2023-01-07T23:19:21.355Z,100679.19
2023-01-07T23:21:52.888Z,100678.34
2023-01-07T23:24:20.670Z,100669.66
2023-01-07T23:26:49.824Z,100674.88
2023-01-07T23:29:17.517Z,100670.50
2023-01-07T23:31:44.462Z,100670.50
2023-01-07T23:34:11.769Z,100674.00
2023-01-07T23:36:39.053Z,100669.63
2023-01-07T23:39:06.535Z,100662.66
2023-01-07T23:41:34.070Z,100676.56
2023-01-07T23:44:01.026Z,100665.28
2023-01-07T23:46:28.000Z,100665.28
2023-01-07T23:48:54.877Z,100665.28
2023-01-07T23:51:22.273Z,100667.03
2023-01-07T23:53:49.728Z,100673.09
2023-01-07T23:56:21.292Z,100672.25
2023-01-07T23:58:49.291Z,100663.56
